Time;durP1;ratioP1;P1;durP2;ratioP2;P2;SDS_P1;SDS_P2;PMS_P1;PMS_P2;Temp;Humidity;BMP_temperature;BMP_pressure;BME280_temperature;BME280_humidity;BME280_pressure;Samples;Min_cycle;Max_cycle;Signal;HPM_P1;HPM_P2
2023/01/27 00:00:05;;;;;;;10.32;6.25;;;;;;;0.21;72.36;99866.94;424784;23;855;-89
2023/01/27 00:00:17;;;;;;;9.90;6.13;;;;;;;0.13;72.15;99863.44;423540;23;907;-89
2023/01/27 00:00:29;;;;;;;9.88;5.88;;;;;;;0.17;71.76;99871.16;424907;23;1138;-90
2023/01/27 00:00:41;;;;;;;9.68;5.65;;;;;;;0.06;72.21;99867.63;422023;23;1115;-90
2023/01/27 00:00:54;;;;;;;9.63;5.40;;;;;;;0.03;72.20;99862.44;423193;23;1006;-89
2023/01/27 00:01:06;;;;;;;11.13;5.65;;;;;;;0.01;72.48;99859.00;424855;23;855;-88
2023/01/27 00:01:18;;;;;;;11.07;6.03;;;;;;;0.11;72.68;99867.66;424893;23;988;-89
2023/01/27 00:01:30;;;;;;;9.93;5.90;;;;;;;0.12;72.95;99866.81;422397;23;927;-89
2023/01/27 00:01:42;;;;;;;10.88;6.03;;;;;;;0.17;72.78;99865.19;422945;23;867;-90
2023/01/27 00:01:54;;;;;;;11.43;6.10;;;;;;;0.15;72.77;99872.84;421932;23;1081;-90
2023/01/27 00:02:06;;;;;;;11.15;6.38;;;;;;;0.08;73.10;99860.81;422592;23;1067;-91
2023/01/27 00:02:18;;;;;;;10.45;6.50;;;;;;;0.01;72.74;99864.13;422179;23;1948;-90
2023/01/27 00:02:31;;;;;;;10.98;6.63;;;;;;;0.04;73.26;99865.84;422837;23;689;-90
2023/01/27 00:02:43;;;;;;;11.02;6.45;;;;;;;0.13;73.16;99868.53;421676;23;1050;-90
2023/01/27 00:02:55;;;;;;;11.43;6.53;;;;;;;0.19;73.46;99866.06;421879;23;864;-90
2023/01/27 00:03:11;;;;;;;12.53;6.40;;;;;;;0.33;72.95;99867.09;422105;23;891;-90
2023/01/27 00:03:23;;;;;;;11.48;6.07;;;;;;;0.36;73.03;99867.16;421417;23;930;-90
2023/01/27 00:03:35;;;;;;;9.90;6.05;;;;;;;0.32;72.42;99867.06;419934;23;887;-91
2023/01/27 00:03:47;;;;;;;10.13;6.10;;;;;;;0.36;72.47;99872.25;419864;23;951;-89
2023/01/27 00:03:59;;;;;;;9.93;5.97;;;;;;;0.33;72.45;99861.97;419683;23;976;-91
2023/01/27 00:04:11;;;;;;;9.90;5.90;;;;;;;0.19;72.38;99864.38;420705;23;686;-90
2023/01/27 00:04:23;;;;;;;10.68;6.03;;;;;;;0.08;72.45;99865.94;421573;23;1063;-90
2023/01/27 00:04:35;;;;;;;10.50;6.00;;;;;;;0.01;72.97;99864.13;421793;23;962;-89
2023/01/27 00:04:47;;;;;;;10.40;6.05;;;;;;;-0.07;73.65;99865.72;421906;23;836;-90
2023/01/27 00:05:00;;;;;;;9.98;6.05;;;;;;;-0.06;73.53;99868.31;422674;23;682;-91
2023/01/27 00:05:14;;;;;;;10.77;6.20;;;;;;;-0.03;74.23;99868.31;421936;23;776;-90
2023/01/27 00:05:26;;;;;;;10.95;6.30;;;;;;;-0.03;73.44;99865.78;421446;23;1189;-89
2023/01/27 00:05:39;;;;;;;10.13;6.13;;;;;;;0.12;73.68;99862.59;420069;23;1015;-89
2023/01/27 00:05:51;;;;;;;10.10;6.10;;;;;;;0.19;73.28;99868.63;419807;23;864;-90
2023/01/27 00:06:03;;;;;;;10.05;6.35;;;;;;;0.24;73.02;99872.06;419671;23;958;-90
2023/01/27 00:06:15;;;;;;;11.30;6.78;;;;;;;0.19;72.66;99868.63;419811;23;963;-90
2023/01/27 00:06:27;;;;;;;11.35;6.43;;;;;;;0.29;72.49;99870.44;417641;23;860;-90
2023/01/27 00:06:42;;;;;;;11.32;6.15;;;;;;;0.33;72.55;99866.25;420621;23;725;-90
2023/01/27 00:06:54;;;;;;;11.07;6.13;;;;;;;0.29;72.03;99867.91;417292;23;988;-90
2023/01/27 00:07:06;;;;;;;11.35;6.05;;;;;;;0.27;72.44;99861.91;417818;23;916;-90
2023/01/27 00:07:18;;;;;;;11.13;6.15;;;;;;;0.28;72.26;99866.19;417942;23;1062;-90
2023/01/27 00:07:30;;;;;;;12.02;6.25;;;;;;;0.26;72.02;99867.84;418175;23;683;-90
2023/01/27 00:07:46;;;;;;;12.13;6.32;;;;;;;0.26;72.09;99870.41;420765;23;694;-90
2023/01/27 00:07:58;;;;;;;11.40;6.40;;;;;;;0.33;71.92;99867.09;423294;23;1021;-89
2023/01/27 00:08:11;;;;;;;11.18;6.35;;;;;;;0.37;71.76;99861.19;424733;23;673;-90
2023/01/27 00:08:23;;;;;;;10.98;6.15;;;;;;;0.35;71.80;99862.84;425884;23;858;-91
2023/01/27 00:08:35;;;;;;;11.27;6.32;;;;;;;0.37;72.01;99866.28;426158;23;1474;-90
2023/01/27 00:08:47;;;;;;;10.32;5.97;;;;;;;0.45;71.64;99871.50;426281;23;881;-89
2023/01/27 00:08:59;;;;;;;10.30;5.97;;;;;;;0.46;71.36;99862.13;425764;23;1057;-90
2023/01/27 00:09:12;;;;;;;10.90;6.20;;;;;;;0.46;71.80;99872.34;423744;23;934;-90
2023/01/27 00:09:24;;;;;;;11.30;6.43;;;;;;;0.46;71.15;99859.56;421698;23;856;-90
2023/01/27 00:09:36;;;;;;;10.68;6.35;;;;;;;0.39;71.59;99864.59;421656;23;1073;-90
2023/01/27 00:09:48;;;;;;;10.70;6.25;;;;;;;0.36;71.74;99862.03;420490;23;690;-90
2023/01/27 00:10:00;;;;;;;10.43;6.32;;;;;;;0.37;71.96;99863.72;421779;23;937;-90
2023/01/27 00:10:19;;;;;;;9.27;5.90;;;;;;;0.32;71.18;99865.41;421252;23;1149;-90
2023/01/27 00:10:31;;;;;;;9.48;5.65;;;;;;;0.33;71.48;99866.25;423764;23;933;-90
2023/01/27 00:10:43;;;;;;;10.35;5.85;;;;;;;0.33;71.37;99864.53;426160;23;834;-90
2023/01/27 00:13:32;;;;;;;10.48;6.22;;;;;;;-0.03;72.55;99865.78;430164;23;913;-90
2023/01/27 00:13:47;;;;;;;11.15;6.20;;;;;;;0.01;72.67;99858.16;427965;23;906;-89
2023/01/27 00:13:59;;;;;;;12.43;5.93;;;;;;;0.08;72.64;99865.06;426670;23;692;-90
2023/01/27 00:14:11;;;;;;;12.68;5.88;;;;;;;0.03;73.04;99865.00;424147;23;942;-90
2023/01/27 00:14:23;;;;;;;10.25;5.82;;;;;;;0.05;72.51;99859.91;423690;23;853;-90
2023/01/27 00:14:35;;;;;;;9.85;5.60;;;;;;;0.04;73.02;99863.28;423337;23;1107;-89
2023/01/27 00:14:47;;;;;;;9.70;5.57;;;;;;;0.04;72.66;99868.41;423397;23;839;-89
2023/01/27 00:14:58;;;;;;;9.80;5.85;;;;;;;0.06;72.82;99861.63;425505;23;1188;-89
2023/01/27 00:15:12;;;;;;;9.27;5.80;;;;;;;-0.04;72.38;99861.50;425734;23;869;-90
2023/01/27 00:15:25;;;;;;;9.40;5.70;;;;;;;-0.04;73.12;99855.53;427972;23;900;-90
2023/01/27 00:15:37;;;;;;;10.63;6.10;;;;;;;0.03;72.92;99864.16;428914;23;695;-89
2023/01/27 00:15:49;;;;;;;11.02;6.15;;;;;;;0.10;73.15;99858.25;428958;23;683;-90
2023/01/27 00:16:01;;;;;;;10.27;5.97;;;;;;;0.11;72.77;99860.84;428063;23;956;-90
2023/01/27 00:16:13;;;;;;;9.80;5.75;;;;;;;0.12;72.17;99861.69;426491;23;692;-90
2023/01/27 00:16:26;;;;;;;9.73;5.90;;;;;;;0.04;72.55;99858.19;425042;23;1165;-90
2023/01/27 00:16:37;;;;;;;10.88;6.00;;;;;;;0.10;72.95;99858.25;425787;23;955;-89
2023/01/27 00:16:49;;;;;;;12.05;6.30;;;;;;;0.13;73.18;99863.44;425858;23;867;-90
2023/01/27 00:17:01;;;;;;;11.13;6.20;;;;;;;0.15;72.99;99861.75;426730;23;676;-90
2023/01/27 00:17:13;;;;;;;11.43;5.88;;;;;;;0.07;72.74;99853.97;428860;23;679;-91
2023/01/27 00:17:25;;;;;;;11.27;6.05;;;;;;;0.05;72.51;99854.81;423289;23;1050;-90
2023/01/27 00:17:37;;;;;;;10.68;6.00;;;;;;;-0.02;73.36;99859.84;421252;23;1175;-90
2023/01/27 00:17:49;;;;;;;10.20;5.72;;;;;;;-0.11;72.98;99863.97;421557;23;1180;-90
2023/01/27 00:18:01;;;;;;;9.40;5.50;;;;;;;-0.06;72.85;99865.75;422602;23;686;-90
2023/01/27 00:18:13;;;;;;;10.20;5.78;;;;;;;-0.01;73.48;99856.44;421646;23;753;-90
2023/01/27 00:18:25;;;;;;;10.50;6.07;;;;;;;0.03;73.36;99856.50;424065;23;780;-90
2023/01/27 00:18:40;;;;;;;10.65;6.10;;;;;;;-0.02;73.19;99859.84;425156;23;1471;-90
2023/01/27 00:18:52;;;;;;;11.52;6.20;;;;;;;-0.05;72.81;99859.78;426513;23;745;-90
2023/01/27 00:19:07;;;;;;;11.23;6.07;;;;;;;0.05;73.14;99865.03;423850;23;874;-90
2023/01/27 00:19:19;;;;;;;10.05;5.80;;;;;;;0.05;73.25;99863.31;423149;23;949;-91
2023/01/27 00:19:31;;;;;;;10.10;6.03;;;;;;;0.05;72.81;99860.78;421882;23;768;-90
2023/01/27 00:19:43;;;;;;;10.18;5.90;;;;;;;0.09;72.94;99857.41;423226;23;1081;-90
2023/01/27 00:19:55;;;;;;;9.55;5.63;;;;;;;0.12;73.16;99857.47;423496;23;1071;-89
2023/01/27 00:20:08;;;;;;;9.68;5.60;;;;;;;0.11;73.19;99857.44;424026;23;790;-89
2023/01/27 00:24:36;;;;;;;11.82;6.30;;;;;;;0.13;73.06;99863.44;431005;23;808;-90
2023/01/27 00:24:48;;;;;;;10.60;6.40;;;;;;;0.27;72.93;99861.91;429797;23;806;-90
2023/01/27 00:25:00;;;;;;;10.50;6.30;;;;;;;0.21;72.84;99866.94;427762;23;855;-89
2023/01/27 00:25:12;;;;;;;10.45;6.20;;;;;;;0.24;72.38;99861.84;425608;23;1150;-90
2023/01/27 00:25:24;;;;;;;10.45;6.00;;;;;;;0.26;72.71;99861.88;423753;23;1128;-90
2023/01/27 00:25:36;;;;;;;10.98;5.97;;;;;;;0.23;72.42;99857.59;421752;23;932;-90
2023/01/27 00:25:49;;;;;;;10.75;5.97;;;;;;;0.22;72.72;99863.53;419680;23;1121;-90
2023/01/27 00:26:05;;;;;;;9.60;5.85;;;;;;;0.23;72.62;99855.03;420530;23;721;-90
2023/01/27 00:26:18;;;;;;;9.77;5.85;;;;;;;0.24;72.85;99861.00;420379;23;813;-90
2023/01/27 00:26:30;;;;;;;9.77;5.60;;;;;;;0.19;72.71;99866.06;421983;23;761;-89
2023/01/27 00:26:42;;;;;;;10.68;5.75;;;;;;;0.32;72.76;99857.72;422676;23;693;-90
2023/01/27 00:26:54;;;;;;;10.75;5.90;;;;;;;0.37;72.32;99861.19;421775;23;970;-90
2023/01/27 00:27:08;;;;;;;10.07;5.78;;;;;;;0.32;73.16;99870.50;419632;23;939;-90
2023/01/27 00:27:20;;;;;;;9.48;5.70;;;;;;;0.38;72.92;99865.47;417787;23;891;-89
2023/01/27 00:27:32;;;;;;;9.57;5.70;;;;;;;0.39;72.66;99856.94;421977;23;692;-89
2023/01/27 00:27:47;;;;;;;9.90;5.70;;;;;;;0.41;72.60;99859.53;422575;23;777;-90
2023/01/27 00:27:59;;;;;;;10.43;5.82;;;;;;;0.43;72.58;99862.09;422063;23;1038;-91
2023/01/27 00:28:21;;;;;;;9.88;5.78;;;;;;;0.38;72.68;99865.47;421180;23;1179;-90
2023/01/27 00:28:35;;;;;;;9.35;5.75;;;;;;;0.45;72.58;99860.41;419615;23;1322;-89
2023/01/27 00:28:47;;;;;;;10.07;5.95;;;;;;;0.48;73.06;99860.44;419774;23;966;-90
2023/01/27 00:28:59;;;;;;;10.27;6.10;;;;;;;0.48;72.98;99860.44;422069;23;900;-89
2023/01/27 00:29:11;;;;;;;11.00;6.03;;;;;;;0.40;73.08;99862.91;422500;23;678;-90
2023/01/27 00:29:23;;;;;;;10.82;5.65;;;;;;;0.37;72.81;99856.06;421978;23;1074;-89
2023/01/27 00:29:36;;;;;;;11.00;5.85;;;;;;;0.22;72.39;99863.53;422679;23;689;-89
2023/01/27 00:29:48;;;;;;;11.15;6.10;;;;;;;0.06;73.49;99862.50;421804;23;1106;-90
2023/01/27 00:30:00;;;;;;;11.38;5.95;;;;;;;0.10;73.18;99858.25;420736;23;682;-89
2023/01/27 00:30:12;;;;;;;10.82;6.00;;;;;;;0.07;73.74;99861.66;424177;23;682;-89
2023/01/27 00:30:24;;;;;;;11.07;5.85;;;;;;;0.04;73.99;99853.06;423328;23;1071;-89
2023/01/27 00:30:36;;;;;;;10.95;5.95;;;;;;;0.09;74.07;99856.56;426208;23;1036;-88
2023/01/27 00:30:49;;;;;;;10.27;5.97;;;;;;;0.11;73.73;99854.88;423367;23;1084;-89
2023/01/27 00:31:01;;;;;;;10.88;6.20;;;;;;;0.17;73.93;99865.19;424644;23;893;-88
2023/01/27 00:33:23;;;;;;;11.65;6.00;;;;;;;-0.18;74.62;99857.91;429831;23;936;-90
2023/01/27 00:33:35;;;;;;;10.75;5.85;;;;;;;-0.23;74.40;99859.53;429590;23;1184;-90
2023/01/27 00:33:48;;;;;;;11.18;6.13;;;;;;;-0.21;74.73;99860.41;428207;23;893;-90
2023/01/27 00:34:07;;;;;;;11.15;6.20;;;;;;;-0.11;74.61;99864.81;427873;23;995;-90
2023/01/27 00:34:20;;;;;;;11.38;6.40;;;;;;;0.05;74.65;99857.38;428605;23;799;-89
2023/01/27 00:34:32;;;;;;;11.05;6.38;;;;;;;0.11;74.75;99862.56;425779;23;1054;-90
2023/01/27 00:34:44;;;;;;;11.50;6.10;;;;;;;0.10;74.38;99863.38;426230;23;687;-90
2023/01/27 00:34:59;;;;;;;12.98;6.68;;;;;;;0.21;74.21;99866.09;426558;23;684;-90
2023/01/27 00:35:11;;;;;;;13.27;7.25;;;;;;;0.28;74.18;99863.63;425728;23;1070;-89
2023/01/27 00:35:24;;;;;;;10.95;6.72;;;;;;;0.34;73.32;99863.72;424700;23;693;-90
2023/01/27 00:35:36;;;;;;;10.73;6.43;;;;;;;0.35;73.88;99865.41;423822;23;860;-89
2023/01/27 00:35:48;;;;;;;12.45;6.70;;;;;;;0.35;73.66;99860.28;423352;23;1206;-91
2023/01/27 00:36:04;;;;;;;13.00;6.82;;;;;;;0.37;73.43;99858.63;426181;23;954;-90
2023/01/27 00:36:16;;;;;;;12.18;6.75;;;;;;;0.39;73.24;99866.31;425846;23;1010;-90
2023/01/27 00:36:28;;;;;;;11.18;6.55;;;;;;;0.38;72.71;99855.25;427888;23;1061;-91
2023/01/27 00:36:41;;;;;;;10.67;6.33;;;;;;;0.41;72.86;99861.22;423321;23;1258;-90
2023/01/27 00:36:53;;;;;;;10.68;6.18;;;;;;;0.38;73.34;99862.91;422487;23;719;-90
2023/01/27 00:37:05;;;;;;;10.32;6.10;;;;;;;0.42;73.28;99863.78;420068;23;773;-90
2023/01/27 00:37:17;;;;;;;9.90;6.13;;;;;;;0.42;73.05;99862.94;420451;23;686;-90
2023/01/27 00:37:29;;;;;;;11.02;6.35;;;;;;;0.43;73.42;99862.94;421147;23;960;-90
2023/01/27 00:37:42;;;;;;;11.07;6.43;;;;;;;0.41;73.10;99861.22;419439;23;1051;-90
2023/01/27 00:37:54;;;;;;;11.23;6.18;;;;;;;0.46;73.36;99862.13;417594;23;864;-89
2023/01/27 00:38:06;;;;;;;11.80;6.30;;;;;;;0.46;73.14;99857.00;420726;23;689;-90
2023/01/27 00:38:19;;;;;;;11.45;6.35;;;;;;;0.53;72.82;99861.38;420212;23;897;-90
2023/01/27 00:38:39;;;;;;;10.77;6.35;;;;;;;0.57;73.16;99860.56;419463;23;1310;-90
2023/01/27 00:38:51;;;;;;;11.25;6.45;;;;;;;0.50;72.66;99858.75;419402;23;1057;-90
2023/01/27 00:39:05;;;;;;;10.80;6.22;;;;;;;0.43;72.67;99857.84;420353;23;686;-90
2023/01/27 00:39:17;;;;;;;10.07;6.07;;;;;;;0.46;72.66;99862.13;419811;23;765;-90
2023/01/27 00:39:29;;;;;;;10.85;6.30;;;;;;;0.48;73.28;99860.44;419025;23;1181;-90
2023/01/27 00:39:41;;;;;;;10.70;6.20;;;;;;;0.30;72.97;99861.97;420139;23;801;-92
2023/01/27 00:39:53;;;;;;;10.65;6.07;;;;;;;0.26;72.97;99862.72;419377;23;1071;-91
2023/01/27 00:40:05;;;;;;;10.35;6.07;;;;;;;0.17;73.10;99862.63;421580;23;1237;-90
2023/01/27 00:40:17;;;;;;;10.65;6.00;;;;;;;0.23;73.30;99862.72;421763;23;976;-90
2023/01/27 00:40:29;;;;;;;11.50;6.10;;;;;;;0.23;73.38;99865.25;424133;23;926;-90
2023/01/27 00:41:14;;;;;;;10.93;6.20;;;;;;;0.25;73.33;99866.16;424660;23;670;-91
2023/01/27 00:41:19;;;;;;;11.77;6.45;;;;;;;0.37;73.25;99857.78;423683;23;1010;-91
2023/01/27 00:41:32;;;;;;;12.80;6.80;;;;;;;0.39;73.19;99856.94;422149;23;973;-90
2023/01/27 00:41:44;;;;;;;14.60;7.43;;;;;;;0.44;73.32;99856.13;423921;23;968;-90
2023/01/27 00:41:56;;;;;;;14.90;7.75;;;;;;;0.46;72.52;99857.00;421816;23;872;-90
2023/01/27 00:42:09;;;;;;;14.65;7.88;;;;;;;0.48;72.51;99858.72;419768;23;960;-90
2023/01/27 00:42:21;;;;;;;13.68;7.72;;;;;;;0.52;72.40;99857.06;417989;23;896;-90
2023/01/27 00:42:33;;;;;;;13.30;7.60;;;;;;;0.46;72.50;99862.13;420508;23;690;-90
2023/01/27 00:42:45;;;;;;;13.00;7.38;;;;;;;0.48;72.58;99860.44;419481;23;1088;-91
2023/01/27 00:42:57;;;;;;;12.65;7.22;;;;;;;0.49;72.59;99862.16;422642;23;681;-90
2023/01/27 00:43:08;;;;;;;12.15;6.82;;;;;;;0.50;72.29;99859.59;421906;23;863;-90
2023/01/27 00:43:20;;;;;;;11.32;6.57;;;;;;;0.56;72.76;99859.72;419748;23;943;-90
2023/01/27 00:43:32;;;;;;;11.27;6.47;;;;;;;0.58;72.67;99852.91;420732;23;686;-89
2023/01/27 00:43:49;;;;;;;11.10;6.55;;;;;;;0.62;72.26;99860.59;422724;23;674;-90
2023/01/27 00:44:03;;;;;;;12.63;7.07;;;;;;;0.59;72.42;99864.00;421980;23;1069;-91
2023/01/27 00:44:18;;;;;;;12.57;6.85;;;;;;;0.41;72.36;99853.56;419973;23;852;-90
2023/01/27 00:44:30;;;;;;;11.20;6.55;;;;;;;0.30;72.41;99856.84;422642;23;1053;-88
2023/01/27 00:45:47;;;;;;;10.75;6.40;;;;;;;0.26;72.99;99855.06;425342;23;1018;-89
2023/01/27 00:45:48;;;;;;;12.20;6.03;;;;;;;0.13;73.77;99860.88;426975;23;924;-88
2023/01/27 00:46:00;;;;;;;11.02;5.97;;;;;;;0.19;73.83;99858.41;426770;23;898;-89
2023/01/27 00:46:32;;;;;;;12.30;6.40;;;;;;;0.02;73.48;99860.75;425667;23;730;-78
2023/01/27 00:46:44;;;;;;;11.65;6.57;;;;;;;0.15;73.80;99859.19;426960;23;783;-77
2023/01/27 00:46:56;;;;;;;10.40;6.50;;;;;;;0.24;74.04;99859.28;427041;23;1160;-78
2023/01/27 00:47:08;;;;;;;10.32;6.55;;;;;;;0.26;73.43;99860.16;427193;23;1064;-77
2023/01/27 00:47:20;;;;;;;11.60;6.43;;;;;;;0.38;73.84;99859.47;425057;23;1149;-76
2023/01/27 00:47:32;;;;;;;11.73;6.35;;;;;;;0.45;73.48;99857.88;425804;23;780;-78
2023/01/27 00:47:47;;;;;;;11.13;6.30;;;;;;;0.46;73.15;99862.13;425003;23;1180;-79
2023/01/27 00:47:59;;;;;;;11.07;6.45;;;;;;;0.44;73.19;99866.38;426081;23;774;-78
2023/01/27 00:48:11;;;;;;;12.70;6.47;;;;;;;0.30;73.50;99861.97;424802;23;1175;-77
2023/01/27 00:48:23;;;;;;;11.98;6.18;;;;;;;0.11;72.93;99854.88;426967;23;1099;-77
2023/01/27 00:48:35;;;;;;;11.65;6.13;;;;;;;0.05;73.29;99858.22;427835;23;1421;-79
2023/01/27 00:48:47;;;;;;;11.55;6.20;;;;;;;-0.03;73.74;99868.31;425087;23;1184;-78
2023/01/27 00:48:59;;;;;;;11.77;6.35;;;;;;;-0.03;74.21;99862.38;426165;23;676;-77
2023/01/27 00:49:12;;;;;;;11.27;6.30;;;;;;;0.08;74.75;99862.50;422364;23;1169;-78
2023/01/27 00:49:24;;;;;;;11.38;5.97;;;;;;;0.20;74.10;99867.78;423871;23;1057;-77
2023/01/27 00:49:36;;;;;;;10.90;6.20;;;;;;;0.25;73.49;99862.75;425278;23;1162;-77
2023/01/27 00:49:48;;;;;;;11.40;6.07;;;;;;;0.30;73.92;99864.50;425987;23;1137;-78
2023/01/27 00:50:00;;;;;;;12.00;6.30;;;;;;;0.34;73.37;99863.72;425371;23;1037;-77
2023/01/27 00:50:12;;;;;;;13.65;6.25;;;;;;;0.30;73.47;99866.19;425561;23;960;-77
2023/01/27 00:50:25;;;;;;;13.48;6.38;;;;;;;0.30;73.02;99864.50;425933;23;684;-77
2023/01/27 00:50:37;;;;;;;13.23;6.40;;;;;;;0.20;73.55;99862.66;425026;23;1044;-79
2023/01/27 00:50:49;;;;;;;12.00;6.60;;;;;;;0.08;73.84;99860.81;426564;23;1034;-79
2023/01/27 00:51:01;;;;;;;12.77;6.80;;;;;;;0.08;74.06;99859.94;427046;23;1193;-77
2023/01/27 00:51:14;;;;;;;12.55;6.53;;;;;;;0.12;74.25;99866.81;427685;23;845;-79
2023/01/27 00:51:26;;;;;;;11.45;6.07;;;;;;;0.12;73.88;99861.69;424742;23;1310;-77
2023/01/27 00:51:38;;;;;;;10.38;5.90;;;;;;;0.18;73.68;99866.88;423208;23;1309;-79
2023/01/27 00:51:50;;;;;;;10.32;5.88;;;;;;;0.26;73.64;99864.44;423794;23;1070;-79
2023/01/27 00:52:02;;;;;;;11.02;6.00;;;;;;;0.30;73.54;99867.06;423834;23;1030;-79
2023/01/27 00:52:15;;;;;;;11.50;6.30;;;;;;;0.27;73.34;99861.91;423856;23;1045;-79
2023/01/27 00:52:27;;;;;;;10.65;6.10;;;;;;;0.25;73.35;99863.59;421672;23;1076;-79
2023/01/27 00:52:39;;;;;;;10.88;6.07;;;;;;;0.32;72.85;99865.41;423049;23;685;-79
2023/01/27 00:52:51;;;;;;;11.95;6.30;;;;;;;0.24;72.94;99871.22;421475;23;1053;-78
2023/01/27 00:53:03;;;;;;;12.00;6.45;;;;;;;0.19;73.36;99866.06;421067;23;1121;-79
2023/01/27 00:53:15;;;;;;;12.82;6.47;;;;;;;0.24;73.41;99869.53;421579;23;1218;-79
2023/01/27 00:53:27;;;;;;;12.90;6.45;;;;;;;0.27;73.17;99867.03;421440;23;1114;-79
2023/01/27 00:53:40;;;;;;;12.05;6.38;;;;;;;0.34;73.25;99866.28;422140;23;1064;-79
2023/01/27 00:53:52;;;;;;;12.57;6.30;;;;;;;0.26;72.88;99865.28;423844;23;1018;-78
2023/01/27 00:54:04;;;;;;;12.52;6.18;;;;;;;0.20;73.08;99857.53;424262;23;1074;-77
2023/01/27 00:54:16;;;;;;;11.75;6.15;;;;;;;0.22;73.32;99863.53;426867;23;687;-77
2023/01/27 00:54:28;;;;;;;10.98;6.00;;;;;;;0.27;73.11;99863.63;424567;23;1115;-78
2023/01/27 00:54:40;;;;;;;11.32;6.05;;;;;;;0.28;73.37;99863.63;425266;23;1006;-77
2023/01/27 00:54:52;;;;;;;10.90;5.93;;;;;;;0.30;73.57;99856.84;425143;23;1439;-77
2023/01/27 00:55:06;;;;;;;10.70;5.82;;;;;;;0.38;73.27;99860.34;425981;23;858;-78
2023/01/27 00:55:18;;;;;;;10.10;5.85;;;;;;;0.42;73.35;99860.38;425619;23;1180;-78
2023/01/27 00:55:30;;;;;;;10.88;6.30;;;;;;;0.43;73.10;99859.53;425319;23;1022;-79
2023/01/27 00:55:42;;;;;;;12.07;6.65;;;;;;;0.38;73.06;99865.47;425203;23;1155;-79
2023/01/27 00:55:57;;;;;;;11.43;6.47;;;;;;;0.37;73.23;99866.28;424925;23;1090;-77
2023/01/27 00:56:09;;;;;;;11.00;6.40;;;;;;;0.38;73.00;99860.34;425579;23;1033;-79
2023/01/27 00:56:21;;;;;;;11.60;6.53;;;;;;;0.45;72.89;99865.53;423641;23;1183;-79
2023/01/27 00:56:33;;;;;;;12.77;6.53;;;;;;;0.47;73.09;99863.84;424724;23;1070;-79
2023/01/27 00:56:45;;;;;;;11.57;6.10;;;;;;;0.38;72.89;99862.91;425695;23;1118;-79
2023/01/27 00:56:57;;;;;;;11.30;5.95;;;;;;;0.47;72.84;99856.19;425649;23;1255;-79
2023/01/27 00:57:09;;;;;;;11.15;6.03;;;;;;;0.46;72.41;99859.56;425555;23;1066;-78
2023/01/27 00:57:21;;;;;;;11.65;6.28;;;;;;;0.46;73.29;99857.84;426409;23;680;-79
2023/01/27 00:57:33;;;;;;;11.27;6.43;;;;;;;0.55;72.99;99862.25;424739;23;1220;-79
2023/01/27 00:57:45;;;;;;;11.68;6.55;;;;;;;0.55;72.83;99862.25;425946;23;1181;-79
2023/01/27 00:57:57;;;;;;;11.77;6.68;;;;;;;0.53;72.61;99854.53;425800;23;1424;-78
2023/01/27 00:58:09;;;;;;;11.68;6.60;;;;;;;0.53;72.83;99861.38;423530;23;1189;-79
2023/01/27 00:58:21;;;;;;;12.18;6.47;;;;;;;0.54;72.99;99858.84;423120;23;1106;-79
2023/01/27 00:58:33;;;;;;;11.27;6.22;;;;;;;0.54;72.65;99860.50;423495;23;1072;-79
2023/01/27 00:58:45;;;;;;;10.90;6.30;;;;;;;0.59;72.26;99861.44;423234;23;1038;-78
2023/01/27 00:58:57;;;;;;;12.18;6.25;;;;;;;0.58;72.59;99859.69;423441;23;1181;-79
2023/01/27 00:59:09;;;;;;;12.82;6.18;;;;;;;0.52;72.85;99857.94;423589;23;1189;-79
2023/01/27 00:59:21;;;;;;;12.07;5.97;;;;;;;0.52;72.96;99854.50;423524;23;1163;-79
2023/01/27 00:59:33;;;;;;;12.02;6.20;;;;;;;0.60;72.92;99865.69;425445;23;1297;-79
2023/01/27 00:59:45;;;;;;;12.65;6.32;;;;;;;0.67;72.59;99857.25;425240;23;1180;-79
2023/01/27 01:00:00;;;;;;;11.73;6.32;;;;;;;0.65;72.89;99858.09;426758;23;677;-76
2023/01/27 01:00:14;;;;;;;10.40;6.13;;;;;;;0.45;72.69;99856.16;425698;23;1020;-79
2023/01/27 01:00:26;;;;;;;10.20;6.00;;;;;;;0.50;72.83;99858.75;427142;23;740;-78
2023/01/27 01:00:38;;;;;;;10.98;6.10;;;;;;;0.49;72.41;99859.63;425259;23;1158;-77
2023/01/27 01:00:54;;;;;;;11.18;5.93;;;;;;;0.39;72.96;99856.94;425690;23;1037;-77
2023/01/27 01:01:10;;;;;;;10.50;5.93;;;;;;;0.38;72.90;99860.34;425982;23;1044;-79
2023/01/27 01:01:22;;;;;;;9.35;5.75;;;;;;;0.26;72.75;99859.31;425550;23;1342;-77
2023/01/27 01:01:34;;;;;;;11.15;6.07;;;;;;;0.23;73.23;99855.03;425405;23;1070;-78
2023/01/27 01:01:47;;;;;;;12.07;6.20;;;;;;;0.28;73.72;99863.63;423549;23;1243;-77
2023/01/27 01:01:59;;;;;;;12.88;6.28;;;;;;;0.22;72.91;99857.56;424370;23;1083;-78
2023/01/27 01:02:11;;;;;;;11.05;6.05;;;;;;;0.23;72.99;99859.31;423803;23;1224;-78
2023/01/27 01:02:23;;;;;;;10.18;6.20;;;;;;;0.19;73.61;99863.50;423822;23;1192;-78
2023/01/27 01:02:35;;;;;;;10.77;6.07;;;;;;;0.26;73.87;99855.06;423901;23;1036;-79
2023/01/27 01:02:47;;;;;;;11.13;5.90;;;;;;;0.33;73.87;99856.00;426247;23;786;-78
2023/01/27 01:02:59;;;;;;;11.32;5.80;;;;;;;0.39;73.60;99859.50;427243;23;684;-78
2023/01/27 01:03:11;;;;;;;9.80;5.70;;;;;;;0.49;73.83;99862.16;423845;23;1100;-77
2023/01/27 01:03:23;;;;;;;10.05;5.82;;;;;;;0.51;73.55;99860.50;423659;23;1050;-79
2023/01/27 01:03:35;;;;;;;11.47;5.93;;;;;;;0.55;73.28;99859.69;423822;23;1022;-79
2023/01/27 01:03:47;;;;;;;12.15;5.97;;;;;;;0.58;72.87;99862.25;423531;23;1176;-77
2023/01/27 01:04:00;;;;;;;12.25;6.10;;;;;;;0.61;72.85;99856.34;426801;23;680;-79
2023/01/27 01:04:12;;;;;;;11.65;6.30;;;;;;;0.60;72.88;99858.00;425534;23;1030;-79
2023/01/27 01:04:24;;;;;;;11.93;6.32;;;;;;;0.56;72.58;99863.94;423578;23;1199;-79
2023/01/27 01:04:36;;;;;;;11.48;6.35;;;;;;;0.50;73.03;99858.75;422882;23;1250;-79
2023/01/27 01:04:48;;;;;;;11.98;6.43;;;;;;;0.47;72.85;99858.75;421288;23;1289;-79
2023/01/27 01:05:00;;;;;;;11.57;6.45;;;;;;;0.51;72.77;99856.22;421045;23;1226;-79
2023/01/27 01:05:11;;;;;;;11.70;6.32;;;;;;;0.53;73.04;99861.38;420036;23;1120;-79
2023/01/27 01:05:23;;;;;;;12.07;6.50;;;;;;;0.57;73.40;99865.69;420288;23;1422;-79
2023/01/27 01:05:35;;;;;;;11.93;6.30;;;;;;;0.61;73.70;99857.19;420165;23;1304;-79
2023/01/27 01:05:48;;;;;;;11.23;6.13;;;;;;;0.70;73.30;99856.41;422944;23;673;-79
2023/01/27 01:06:04;;;;;;;11.02;6.18;;;;;;;0.74;73.22;99861.56;421358;23;910;-77
2023/01/27 01:06:18;;;;;;;11.57;6.05;;;;;;;0.74;73.13;99859.03;421896;23;1093;-79
2023/01/27 01:06:30;;;;;;;10.85;6.03;;;;;;;0.78;72.66;99860.75;422905;23;1090;-79
2023/01/27 01:06:42;;;;;;;10.73;6.10;;;;;;;0.75;72.58;99863.31;423387;23;1018;-79
2023/01/27 01:06:54;;;;;;;11.85;6.50;;;;;;;0.69;73.19;99862.41;423517;23;1010;-77
2023/01/27 01:07:06;;;;;;;12.20;6.32;;;;;;;0.72;72.84;99858.16;423628;23;1135;-77
2023/01/27 01:07:18;;;;;;;12.00;6.25;;;;;;;0.77;72.61;99863.34;424507;23;1897;-79
2023/01/27 01:07:32;;;;;;;11.32;6.28;;;;;;;0.77;72.65;99863.34;425531;23;1180;-79
2023/01/27 01:07:44;;;;;;;10.77;6.40;;;;;;;0.77;72.90;99863.34;425933;23;982;-79
2023/01/27 01:07:56;;;;;;;9.63;6.10;;;;;;;0.83;72.54;99860.00;425827;23;1056;-79
2023/01/27 01:08:08;;;;;;;10.75;6.07;;;;;;;0.81;72.28;99859.13;426127;23;1034;-79
2023/01/27 01:08:20;;;;;;;11.30;6.15;;;;;;;0.82;72.94;99855.69;425495;23;1151;-79
2023/01/27 01:08:33;;;;;;;12.32;6.53;;;;;;;0.78;72.04;99860.75;425979;23;1134;-79
2023/01/27 01:08:46;;;;;;;11.48;6.45;;;;;;;0.77;72.77;99864.19;425380;23;1152;-78
2023/01/27 01:08:58;;;;;;;10.35;6.07;;;;;;;0.73;72.17;99857.31;423142;23;1168;-77
2023/01/27 01:09:10;;;;;;;9.07;5.55;;;;;;;0.78;72.21;99860.75;424130;23;1120;-79
2023/01/27 01:09:22;;;;;;;10.70;5.82;;;;;;;0.67;72.34;99857.25;423052;23;1164;-79
2023/01/27 01:09:34;;;;;;;12.07;6.20;;;;;;;0.66;72.40;99864.91;423240;23;1071;-79
2023/01/27 01:09:46;;;;;;;12.05;6.18;;;;;;;0.61;72.67;99861.47;423801;23;1102;-79
2023/01/27 01:09:58;;;;;;;10.48;5.93;;;;;;;0.58;72.67;99855.47;421523;23;1230;-79
2023/01/27 01:10:10;;;;;;;9.52;5.93;;;;;;;0.45;72.89;99861.28;421172;23;1339;-79
2023/01/27 01:10:22;;;;;;;10.77;6.28;;;;;;;0.26;73.40;99862.72;421411;23;1172;-79
2023/01/27 01:10:36;;;;;;;11.63;6.53;;;;;;;0.29;73.71;99859.38;421762;23;1039;-79
2023/01/27 01:10:48;;;;;;;10.85;6.00;;;;;;;0.34;73.48;99852.59;421912;23;1191;-79
2023/01/27 01:11:00;;;;;;;10.73;6.03;;;;;;;0.33;73.68;99854.31;422854;23;836;-79
2023/01/27 01:11:14;;;;;;;11.02;6.25;;;;;;;0.35;73.86;99852.63;423900;23;1147;-79